Time;durP1;ratioP1;P1;durP2;ratioP2;P2;SDS_P1;SDS_P2;PMS_P1;PMS_P2;Temp;Humidity;BMP_temperature;BMP_pressure;BME280_temperature;BME280_humidity;BME280_pressure;Samples;Min_cycle;Max_cycle;Signal;HPM_P1;HPM_P2
2023/06/30 00:00:55;;;;;;;9.03;7.40;;;17.30;99.90;;;;;;490244;242;28851;-80
2023/06/30 00:02:58;;;;;;;8.20;6.37;;;17.30;99.90;;;;;;490229;242;28761;-79
2023/06/30 00:04:58;;;;;;;10.50;7.00;;;17.30;99.90;;;;;;490103;242;28724;-80
2023/06/30 00:06:59;;;;;;;8.23;7.10;;;17.30;99.90;;;;;;490185;242;28812;-79
2023/06/30 00:09:00;;;;;;;7.80;6.93;;;17.30;99.90;;;;;;490220;242;29292;-79
2023/06/30 00:11:01;;;;;;;7.37;6.20;;;17.40;99.90;;;;;;490229;242;29212;-79
2023/06/30 00:13:03;;;;;;;7.80;6.80;;;17.40;99.90;;;;;;490239;242;29313;-79
2023/06/30 00:15:04;;;;;;;7.50;6.60;;;17.40;99.90;;;;;;490243;242;29290;-79
2023/06/30 00:17:05;;;;;;;7.27;6.07;;;17.40;99.90;;;;;;490206;242;28870;-79
2023/06/30 00:19:08;;;;;;;10.00;7.10;;;17.30;99.90;;;;;;490248;242;28739;-79
2023/06/30 00:21:08;;;;;;;9.50;6.40;;;17.30;99.90;;;;;;490171;242;28733;-79
2023/06/30 00:23:11;;;;;;;9.00;6.97;;;17.30;99.90;;;;;;490209;242;28745;-79
2023/06/30 00:25:10;;;;;;;5.80;5.30;;;17.20;99.90;;;;;;490164;242;28725;-79
2023/06/30 00:27:11;;;;;;;8.27;6.70;;;17.30;99.90;;;;;;490243;242;28825;-79
2023/06/30 00:29:13;;;;;;;9.57;6.03;;;17.30;99.90;;;;;;490272;242;28773;-78
2023/06/30 00:31:14;;;;;;;7.20;5.90;;;17.20;99.90;;;;;;490246;242;28711;-79
2023/06/30 00:33:15;;;;;;;7.77;5.83;;;17.30;99.90;;;;;;490261;242;29231;-79
2023/06/30 00:35:16;;;;;;;12.10;6.20;;;17.30;99.90;;;;;;490233;242;29915;-79
2023/06/30 00:37:18;;;;;;;9.13;6.83;;;17.20;99.90;;;;;;490214;242;29185;-79
2023/06/30 00:39:19;;;;;;;7.83;6.77;;;17.10;99.90;;;;;;490233;242;28815;-79
2023/06/30 00:41:20;;;;;;;6.60;6.00;;;17.20;99.90;;;;;;490249;242;28713;-79
2023/06/30 00:43:22;;;;;;;8.07;6.30;;;17.10;99.90;;;;;;490216;242;28818;-79
2023/06/30 00:45:23;;;;;;;10.70;6.40;;;17.20;99.90;;;;;;490213;242;28692;-79
2023/06/30 00:47:24;;;;;;;8.23;6.80;;;17.20;99.90;;;;;;490207;242;28783;-79
2023/06/30 00:49:25;;;;;;;8.53;6.77;;;17.20;99.90;;;;;;490237;242;28788;-79
2023/06/30 00:51:27;;;;;;;7.43;6.40;;;17.20;99.90;;;;;;490233;242;28737;-80
2023/06/30 00:53:28;;;;;;;9.63;6.90;;;17.20;99.90;;;;;;490206;242;28787;-79
2023/06/30 00:55:29;;;;;;;9.20;7.17;;;17.10;99.90;;;;;;490167;242;28708;-79
2023/06/30 00:57:30;;;;;;;7.40;6.30;;;17.00;99.90;;;;;;490217;242;29233;-79
2023/06/30 00:59:32;;;;;;;9.07;6.77;;;17.00;99.90;;;;;;490234;242;29292;-79
2023/06/30 01:01:33;;;;;;;6.53;5.90;;;17.10;99.90;;;;;;490203;242;29274;-79
2023/06/30 01:03:34;;;;;;;7.90;6.93;;;17.20;99.90;;;;;;490213;242;29324;-80
2023/06/30 01:05:35;;;;;;;8.00;6.33;;;17.10;99.90;;;;;;490232;242;28763;-79
2023/06/30 01:07:37;;;;;;;9.00;6.97;;;17.10;99.90;;;;;;490184;242;28737;-79
2023/06/30 01:09:38;;;;;;;9.00;7.00;;;17.10;99.90;;;;;;490254;242;28883;-78
2023/06/30 01:11:39;;;;;;;7.37;6.50;;;17.00;99.90;;;;;;490232;241;28824;-79
2023/06/30 01:13:40;;;;;;;6.87;6.17;;;17.10;99.90;;;;;;490209;242;28848;-79
2023/06/30 01:15:42;;;;;;;8.30;6.43;;;17.20;99.90;;;;;;490198;242;28823;-79
2023/06/30 01:17:45;;;;;;;8.27;6.60;;;17.20;99.90;;;;;;490191;242;28816;-79
2023/06/30 01:19:47;;;;;;;6.70;5.90;;;17.20;99.90;;;;;;490096;242;28745;-79
2023/06/30 01:21:50;;;;;;;9.00;6.93;;;17.30;99.90;;;;;;490196;242;28834;-79
2023/06/30 01:23:50;;;;;;;7.53;6.40;;;17.30;99.90;;;;;;490159;242;28795;-79
2023/06/30 01:25:51;;;;;;;6.93;6.23;;;17.20;99.90;;;;;;490195;242;28748;-79
2023/06/30 01:27:52;;;;;;;7.77;6.70;;;17.30;99.90;;;;;;490212;242;28723;-79
2023/06/30 01:29:53;;;;;;;7.77;6.67;;;17.20;99.90;;;;;;490196;242;28728;-79
2023/06/30 01:31:55;;;;;;;10.40;7.80;;;17.30;99.90;;;;;;490227;242;28752;-79
2023/06/30 01:33:56;;;;;;;7.50;6.80;;;17.30;99.90;;;;;;490201;242;28743;-79
2023/06/30 01:35:57;;;;;;;7.53;6.73;;;17.40;99.90;;;;;;490220;242;29220;-79
2023/06/30 01:37:59;;;;;;;10.73;6.63;;;17.20;99.90;;;;;;490266;242;29245;-79
2023/06/30 01:40:00;;;;;;;8.20;6.47;;;17.20;99.90;;;;;;490207;240;29211;-79
2023/06/30 01:42:01;;;;;;;9.57;6.90;;;17.30;99.90;;;;;;490259;242;28835;-79
2023/06/30 01:44:02;;;;;;;8.97;6.87;;;17.30;99.90;;;;;;490246;242;28792;-78
2023/06/30 01:46:03;;;;;;;11.00;6.77;;;17.40;99.90;;;;;;490267;242;28820;-79
2023/06/30 01:48:05;;;;;;;10.37;7.20;;;17.40;99.90;;;;;;490210;242;28857;-79
2023/06/30 01:50:06;;;;;;;7.57;6.67;;;17.50;99.90;;;;;;490177;242;28747;-79
2023/06/30 01:52:07;;;;;;;7.60;6.30;;;17.50;99.90;;;;;;490246;242;28744;-79
2023/06/30 01:54:08;;;;;;;9.13;6.67;;;17.50;99.90;;;;;;490237;242;28716;-79
2023/06/30 01:56:10;;;;;;;10.27;6.40;;;17.50;99.90;;;;;;490205;242;28737;-79
2023/06/30 01:58:11;;;;;;;6.90;6.23;;;17.50;99.90;;;;;;490184;242;29182;-79
2023/06/30 02:00:12;;;;;;;7.87;7.00;;;17.50;99.90;;;;;;490210;242;29231;-79
2023/06/30 02:02:13;;;;;;;7.47;6.47;;;17.50;99.90;;;;;;490237;242;29288;-79
2023/06/30 02:04:15;;;;;;;9.47;7.10;;;17.50;99.90;;;;;;490206;242;28744;-80
2023/06/30 02:06:16;;;;;;;7.37;6.30;;;17.40;99.90;;;;;;490189;242;28732;-78
2023/06/30 02:08:17;;;;;;;7.30;6.27;;;17.40;99.90;;;;;;490185;241;28751;-79
2023/06/30 02:10:18;;;;;;;9.70;5.90;;;17.40;99.90;;;;;;490200;242;28743;-79
2023/06/30 02:12:20;;;;;;;8.17;6.77;;;17.20;99.90;;;;;;490224;242;29092;-79
2023/06/30 02:14:21;;;;;;;7.63;6.83;;;17.10;99.90;;;;;;490206;242;28780;-79
2023/06/30 02:16:22;;;;;;;6.93;6.23;;;17.10;99.90;;;;;;490212;242;28830;-79
2023/06/30 02:18:24;;;;;;;7.27;6.57;;;17.10;99.90;;;;;;490219;242;28792;-79
2023/06/30 02:20:25;;;;;;;9.40;6.80;;;17.10;99.90;;;;;;490159;242;28752;-79
2023/06/30 02:22:26;;;;;;;7.67;6.97;;;17.10;99.90;;;;;;490198;242;29363;-78
2023/06/30 02:26:32;;;;;;;8.90;7.70;;;17.10;99.90;;;;;;472306;250;29290;-79
2023/06/30 02:28:33;;;;;;;10.37;7.60;;;17.10;99.90;;;;;;470603;251;29359;-79
2023/06/30 02:30:34;;;;;;;11.10;7.77;;;17.10;99.90;;;;;;466308;251;29604;-79
2023/06/30 02:32:38;;;;;;;17.63;9.00;;;17.00;99.90;;;;;;470628;251;28750;-79
2023/06/30 02:34:37;;;;;;;14.27;9.47;;;16.90;99.90;;;;;;462314;256;28846;-79
2023/06/30 02:36:38;;;;;;;15.67;9.33;;;17.00;99.90;;;;;;466360;253;29007;-79
2023/06/30 02:38:39;;;;;;;23.53;11.70;;;16.90;99.90;;;;;;470562;251;28789;-78
2023/06/30 02:40:40;;;;;;;20.03;11.90;;;16.70;99.90;;;;;;466391;253;28948;-79
2023/06/30 02:42:42;;;;;;;18.70;12.30;;;16.60;99.90;;;;;;470599;252;28847;-79
2023/06/30 02:44:43;;;;;;;14.93;10.10;;;16.50;99.90;;;;;;466346;253;29504;-79
2023/06/30 02:46:45;;;;;;;13.63;10.27;;;16.50;99.90;;;;;;470611;251;29241;-79
2023/06/30 02:48:45;;;;;;;12.20;9.33;;;16.70;99.90;;;;;;466350;253;29056;-79
2023/06/30 02:50:47;;;;;;;12.33;9.33;;;16.90;99.90;;;;;;470633;251;28797;-79
2023/06/30 02:52:48;;;;;;;11.70;9.53;;;16.90;99.90;;;;;;466416;253;28933;-79
2023/06/30 02:54:49;;;;;;;12.10;9.97;;;17.00;99.90;;;;;;470608;251;28781;-79
2023/06/30 02:56:50;;;;;;;13.27;9.63;;;17.00;99.90;;;;;;466356;253;29027;-79
2023/06/30 02:58:52;;;;;;;14.27;9.50;;;17.00;99.90;;;;;;470590;251;28784;-79
2023/06/30 03:00:56;;;;;;;13.03;9.60;;;16.90;99.90;;;;;;466380;253;29457;-79
2023/06/30 03:02:54;;;;;;;11.13;8.17;;;16.90;99.90;;;;;;470456;252;29222;-80
2023/06/30 03:04:55;;;;;;;15.03;9.27;;;16.90;99.90;;;;;;466337;255;29469;-79
2023/06/30 03:06:57;;;;;;;12.17;9.30;;;16.70;99.90;;;;;;470497;252;28884;-79
2023/06/30 03:08:58;;;;;;;12.10;8.80;;;16.80;99.90;;;;;;466351;253;29053;-79
2023/06/30 03:10:59;;;;;;;11.80;8.90;;;16.80;99.90;;;;;;470596;251;28788;-78
2023/06/30 03:13:00;;;;;;;15.90;10.00;;;16.70;99.90;;;;;;466359;253;28953;-79
2023/06/30 03:15:02;;;;;;;12.23;9.70;;;16.70;99.90;;;;;;470595;251;28803;-79
2023/06/30 03:17:03;;;;;;;9.20;8.20;;;16.60;99.90;;;;;;466238;255;28906;-79
2023/06/30 03:19:04;;;;;;;13.53;9.40;;;16.50;99.90;;;;;;470554;251;29263;-79
2023/06/30 03:21:05;;;;;;;11.70;8.27;;;16.40;99.90;;;;;;466387;253;29513;-79
2023/06/30 03:23:07;;;;;;;10.83;9.30;;;16.30;99.90;;;;;;470602;251;29291;-79
2023/06/30 03:25:08;;;;;;;11.90;9.33;;;16.30;99.90;;;;;;466381;253;28938;-79
2023/06/30 03:27:09;;;;;;;10.80;9.13;;;16.20;99.90;;;;;;470586;251;28825;-79
2023/06/30 03:29:10;;;;;;;13.63;9.67;;;16.30;99.90;;;;;;466366;253;28933;-79
2023/06/30 03:31:12;;;;;;;12.57;9.10;;;16.30;99.90;;;;;;470596;251;29090;-79
2023/06/30 03:33:13;;;;;;;13.80;10.33;;;16.30;99.90;;;;;;466347;255;28906;-79
2023/06/30 03:35:14;;;;;;;11.77;8.50;;;16.30;99.90;;;;;;470479;252;28810;-79
2023/06/30 03:37:15;;;;;;;12.07;9.27;;;16.30;99.90;;;;;;466359;253;29405;-80
2023/06/30 03:39:17;;;;;;;15.50;9.57;;;16.40;99.90;;;;;;470579;251;29282;-79
2023/06/30 03:41:18;;;;;;;12.87;9.70;;;16.40;99.90;;;;;;466386;253;29532;-79
2023/06/30 03:43:22;;;;;;;13.00;9.30;;;16.50;99.90;;;;;;470486;252;28797;-79
2023/06/30 03:45:21;;;;;;;14.33;10.43;;;16.50;99.90;;;;;;466210;255;28955;-79
2023/06/30 03:47:22;;;;;;;12.30;9.10;;;16.50;99.90;;;;;;470583;251;28818;-79
2023/06/30 03:49:23;;;;;;;15.17;10.50;;;16.50;99.90;;;;;;466372;253;29061;-80
2023/06/30 03:51:24;;;;;;;13.77;9.67;;;16.50;99.90;;;;;;470595;251;29130;-79
2023/06/30 03:53:26;;;;;;;13.40;10.20;;;16.50;99.90;;;;;;466403;253;28982;-80
2023/06/30 03:55:27;;;;;;;14.57;10.40;;;16.50;99.90;;;;;;470614;251;29275;-80
2023/06/30 03:57:28;;;;;;;13.40;9.60;;;16.50;99.90;;;;;;466383;253;29476;-79
2023/06/30 03:59:29;;;;;;;13.07;9.97;;;16.50;99.90;;;;;;470615;251;28743;-79
2023/06/30 04:01:33;;;;;;;15.83;10.47;;;16.50;99.90;;;;;;466391;253;28976;-79
2023/06/30 04:03:33;;;;;;;13.33;10.67;;;16.60;99.90;;;;;;470485;252;28742;-79
2023/06/30 04:05:33;;;;;;;11.77;9.90;;;16.50;99.90;;;;;;466391;253;28980;-79
2023/06/30 04:07:34;;;;;;;13.60;10.33;;;16.50;99.90;;;;;;470625;251;28923;-79
2023/06/30 04:09:36;;;;;;;14.37;11.50;;;16.50;99.90;;;;;;466379;253;28955;-79
2023/06/30 04:11:37;;;;;;;11.03;9.80;;;16.50;99.90;;;;;;470625;252;29376;-79
2023/06/30 04:13:38;;;;;;;13.07;10.23;;;16.40;99.90;;;;;;466411;253;29383;-79
2023/06/30 04:15:39;;;;;;;9.50;8.23;;;16.30;99.90;;;;;;470602;251;28784;-79
2023/06/30 04:17:41;;;;;;;12.57;10.23;;;16.30;99.90;;;;;;466402;253;28908;-79
2023/06/30 04:19:42;;;;;;;12.27;9.50;;;16.30;99.90;;;;;;470588;251;28807;-79
2023/06/30 04:21:43;;;;;;;11.80;9.10;;;16.40;99.90;;;;;;466317;253;29347;-79
2023/06/30 04:23:44;;;;;;;11.63;9.57;;;16.50;99.90;;;;;;470599;251;28752;-79
2023/06/30 04:25:46;;;;;;;13.50;10.03;;;16.50;99.90;;;;;;466384;253;29049;-79
2023/06/30 04:27:47;;;;;;;11.77;9.93;;;16.60;99.90;;;;;;470584;251;29248;-80
2023/06/30 04:29:48;;;;;;;13.33;9.97;;;16.70;99.90;;;;;;466387;253;29440;-79
2023/06/30 04:31:50;;;;;;;11.63;10.07;;;16.70;99.90;;;;;;470586;251;28817;-79
2023/06/30 04:33:51;;;;;;;15.40;11.10;;;16.80;99.90;;;;;;466394;253;29001;-78
2023/06/30 04:35:52;;;;;;;15.87;10.57;;;16.80;99.90;;;;;;470619;251;28766;-79
2023/06/30 04:37:53;;;;;;;12.67;10.63;;;16.80;99.90;;;;;;466364;253;28891;-79
2023/06/30 04:39:54;;;;;;;10.67;9.47;;;16.90;99.90;;;;;;470597;251;28904;-79
2023/06/30 04:41:56;;;;;;;11.93;9.87;;;16.90;99.90;;;;;;466399;253;28935;-79
2023/06/30 04:43:57;;;;;;;10.90;9.50;;;17.00;99.90;;;;;;470620;251;29278;-79
2023/06/30 04:45:58;;;;;;;13.03;10.30;;;17.10;99.90;;;;;;466387;253;29428;-79
2023/06/30 04:48:00;;;;;;;14.10;10.13;;;17.00;99.90;;;;;;470589;251;28863;-79
2023/06/30 04:50:01;;;;;;;13.80;10.40;;;17.10;99.90;;;;;;466283;253;28910;-79
2023/06/30 04:52:02;;;;;;;11.03;9.47;;;17.10;99.90;;;;;;470398;252;28756;-80
2023/06/30 04:54:03;;;;;;;12.40;9.43;;;17.10;99.90;;;;;;466287;253;29026;-78
2023/06/30 04:56:04;;;;;;;13.67;10.40;;;17.10;99.90;;;;;;470598;251;28880;-78
2023/06/30 04:58:06;;;;;;;15.00;11.47;;;17.10;99.90;;;;;;466360;253;28968;-79
2023/06/30 05:00:08;;;;;;;12.70;10.13;;;17.20;99.90;;;;;;470554;251;29292;-79
2023/06/30 05:02:08;;;;;;;11.57;10.30;;;17.20;99.90;;;;;;466326;253;30171;-79
2023/06/30 05:04:10;;;;;;;12.50;9.63;;;17.20;99.90;;;;;;470585;251;28846;-79
2023/06/30 05:06:11;;;;;;;11.30;9.17;;;17.10;99.90;;;;;;466386;253;28938;-79
2023/06/30 05:08:14;;;;;;;14.20;11.20;;;17.10;99.90;;;;;;470577;252;28768;-79
2023/06/30 05:10:13;;;;;;;11.90;10.40;;;17.20;99.90;;;;;;466354;255;28957;-79
2023/06/30 05:12:15;;;;;;;11.47;10.07;;;17.20;99.90;;;;;;470539;252;28834;-79
2023/06/30 05:14:16;;;;;;;12.33;10.10;;;17.30;99.90;;;;;;466404;253;29536;-79
2023/06/30 05:16:17;;;;;;;11.63;10.40;;;17.30;99.90;;;;;;470602;251;29385;-79
2023/06/30 05:18:18;;;;;;;15.50;9.67;;;17.40;99.90;;;;;;466422;253;28908;-79
2023/06/30 05:20:20;;;;;;;15.60;11.50;;;17.30;99.90;;;;;;470635;251;28764;-79
2023/06/30 05:22:21;;;;;;;14.43;9.60;;;17.40;99.90;;;;;;466408;253;28997;-78
2023/06/30 05:24:22;;;;;;;10.50;9.50;;;17.40;99.90;;;;;;470636;249;28773;-79
2023/06/30 05:26:23;;;;;;;13.77;10.67;;;17.40;99.90;;;;;;466448;253;28954;-79
2023/06/30 05:28:25;;;;;;;13.63;10.30;;;17.50;99.90;;;;;;470645;251;28822;-79
2023/06/30 05:30:26;;;;;;;15.33;11.97;;;17.50;99.90;;;;;;466363;253;29408;-79
2023/06/30 05:32:27;;;;;;;13.40;11.30;;;17.60;99.90;;;;;;470581;251;29359;-79
2023/06/30 05:34:28;;;;;;;15.50;11.80;;;17.60;99.90;;;;;;466366;253;29020;-79
2023/06/30 05:36:30;;;;;;;16.20;13.13;;;17.70;99.90;;;;;;470635;251;28844;-79
2023/06/30 05:38:31;;;;;;;17.93;11.83;;;17.80;99.90;;;;;;466385;253;28908;-79
2023/06/30 05:40:32;;;;;;;15.53;13.50;;;17.80;99.90;;;;;;470594;251;28789;-79
2023/06/30 05:42:33;;;;;;;17.53;13.30;;;17.80;99.90;;;;;;466350;253;28911;-79
2023/06/30 05:44:35;;;;;;;18.20;13.70;;;17.80;99.90;;;;;;470608;251;29319;-79
2023/06/30 05:46:39;;;;;;;18.90;15.10;;;17.80;99.90;;;;;;466376;253;29466;-79
2023/06/30 05:48:40;;;;;;;26.20;16.87;;;17.80;99.90;;;;;;470623;251;28867;-79
2023/06/30 05:50:41;;;;;;;20.63;13.73;;;17.80;99.90;;;;;;466401;253;28907;-79
2023/06/30 05:52:43;;;;;;;19.97;14.97;;;17.80;99.90;;;;;;470606;251;28881;-79
2023/06/30 05:54:44;;;;;;;20.70;15.30;;;17.90;99.90;;;;;;466377;253;28920;-80
2023/06/30 05:56:45;;;;;;;26.77;17.57;;;18.00;99.90;;;;;;470582;251;29346;-78
2023/06/30 05:58:46;;;;;;;27.23;18.83;;;18.00;99.90;;;;;;466421;253;29536;-79
2023/06/30 06:00:48;;;;;;;24.00;17.00;;;18.00;99.90;;;;;;470605;251;28789;-77
2023/06/30 06:02:49;;;;;;;27.67;18.60;;;18.10;99.90;;;;;;466385;253;28953;-79
2023/06/30 06:04:51;;;;;;;22.27;16.93;;;18.10;99.90;;;;;;470572;251;28821;-79
2023/06/30 06:06:51;;;;;;;24.43;18.67;;;18.10;99.90;;;;;;466369;253;29057;-79
2023/06/30 06:08:53;;;;;;;30.47;21.47;;;18.10;99.90;;;;;;470617;251;28827;-79
2023/06/30 06:10:54;;;;;;;31.33;21.13;;;18.10;99.90;;;;;;466185;255;29372;-79
2023/06/30 06:12:55;;;;;;;27.30;19.73;;;18.10;99.90;;;;;;470558;251;29370;-79
2023/06/30 06:14:56;;;;;;;40.37;26.30;;;18.30;99.90;;;;;;466317;253;28932;-79
2023/06/30 06:16:58;;;;;;;28.17;20.53;;;18.00;99.90;;;;;;470547;251;28795;-79
2023/06/30 06:18:59;;;;;;;31.30;19.33;;;18.00;99.90;;;;;;466356;253;28945;-79
2023/06/30 06:21:00;;;;;;;28.17;19.90;;;18.10;99.90;;;;;;470311;252;28736;-79
2023/06/30 06:23:01;;;;;;;33.83;22.13;;;18.30;99.90;;;;;;466369;253;28929;-79
2023/06/30 06:25:03;;;;;;;30.23;22.50;;;18.20;99.90;;;;;;470608;251;29243;-79
2023/06/30 06:27:04;;;;;;;35.00;21.53;;;18.30;99.90;;;;;;466396;253;29362;-79
2023/06/30 06:29:05;;;;;;;31.23;19.93;;;18.40;99.90;;;;;;470625;251;28856;-79
2023/06/30 06:31:07;;;;;;;31.50;21.73;;;18.50;99.90;;;;;;466400;253;28994;-79
2023/06/30 06:33:08;;;;;;;35.90;23.67;;;18.60;99.90;;;;;;470610;251;28843;-79
2023/06/30 06:35:09;;;;;;;34.60;22.47;;;18.60;99.90;;;;;;466431;253;28921;-79
2023/06/30 06:37:10;;;;;;;33.33;22.23;;;18.70;99.90;;;;;;470625;252;28796;-80
2023/06/30 06:39:12;;;;;;;37.53;21.90;;;18.80;99.90;;;;;;466384;253;29400;-78
2023/06/30 06:41:13;;;;;;;39.40;22.73;;;18.70;99.90;;;;;;470610;251;29222;-79
2023/06/30 06:43:14;;;;;;;38.43;24.23;;;18.70;99.90;;;;;;466359;252;28959;-79
2023/06/30 06:45:17;;;;;;;40.80;24.57;;;18.60;99.90;;;;;;470644;251;28749;-79
2023/06/30 06:47:17;;;;;;;38.87;24.50;;;18.60;99.90;;;;;;466294;255;28953;-79
2023/06/30 06:49:18;;;;;;;38.63;23.37;;;18.40;99.90;;;;;;470621;251;28800;-79
2023/06/30 06:51:19;;;;;;;45.97;28.03;;;18.40;99.90;;;;;;466392;253;28919;-79
2023/06/30 06:53:20;;;;;;;41.27;28.27;;;18.40;99.90;;;;;;470594;251;29251;-79
2023/06/30 06:55:22;;;;;;;44.57;28.57;;;18.40;99.90;;;;;;466368;253;29373;-79
2023/06/30 06:57:23;;;;;;;43.17;26.47;;;18.40;99.90;;;;;;470616;251;28786;-79
2023/06/30 06:59:24;;;;;;;45.87;28.00;;;18.20;99.90;;;;;;466391;253;29108;-78
2023/06/30 07:01:25;;;;;;;52.90;31.23;;;18.20;99.90;;;;;;470615;251;28733;-78
2023/06/30 07:03:27;;;;;;;43.10;26.13;;;18.20;99.90;;;;;;466385;253;28980;-79
2023/06/30 07:05:28;;;;;;;53.03;30.80;;;18.10;99.90;;;;;;470481;252;28892;-79
2023/06/30 07:07:29;;;;;;;45.67;28.47;;;18.20;99.90;;;;;;466357;253;29404;-80
2023/06/30 07:09:30;;;;;;;50.83;28.50;;;18.00;99.90;;;;;;470637;251;29279;-79
2023/06/30 07:11:32;;;;;;;49.47;28.73;;;18.10;99.90;;;;;;466420;255;28911;-79
2023/06/30 07:13:33;;;;;;;42.37;27.30;;;18.00;99.90;;;;;;470622;251;28832;-79
2023/06/30 07:15:34;;;;;;;56.80;32.30;;;18.10;99.90;;;;;;466413;253;28903;-79
2023/06/30 07:17:35;;;;;;;58.23;33.60;;;18.20;99.90;;;;;;470596;251;28797;-79
2023/06/30 07:19:37;;;;;;;63.57;34.37;;;18.20;99.90;;;;;;466436;253;29050;-78
2023/06/30 07:21:38;;;;;;;45.43;28.73;;;18.10;99.90;;;;;;470625;251;29276;-79
2023/06/30 07:23:39;;;;;;;46.27;28.40;;;18.10;99.90;;;;;;466410;253;29420;-79
2023/06/30 07:25:40;;;;;;;49.30;30.20;;;18.30;99.90;;;;;;470587;251;28836;-78
2023/06/30 07:27:42;;;;;;;46.17;28.27;;;18.20;99.90;;;;;;466381;253;28982;-79
2023/06/30 07:29:43;;;;;;;51.03;28.50;;;18.30;99.90;;;;;;470609;251;28783;-79
2023/06/30 07:31:44;;;;;;;43.80;28.03;;;18.40;99.90;;;;;;466397;253;28904;-78
2023/06/30 07:33:46;;;;;;;48.97;30.03;;;18.40;99.90;;;;;;470622;251;28779;-79
2023/06/30 07:35:47;;;;;;;48.97;28.60;;;18.60;99.90;;;;;;466397;255;29389;-79
2023/06/30 07:37:48;;;;;;;47.27;29.57;;;18.80;99.90;;;;;;470588;251;29260;-79
2023/06/30 07:39:49;;;;;;;48.63;30.03;;;18.90;99.90;;;;;;466371;253;29421;-78
2023/06/30 07:41:51;;;;;;;51.70;32.23;;;18.90;99.90;;;;;;470493;252;28747;-79
2023/06/30 07:43:52;;;;;;;50.27;30.70;;;18.90;99.90;;;;;;466346;255;28983;-79
2023/06/30 07:45:53;;;;;;;54.87;33.07;;;18.80;99.90;;;;;;470638;251;28735;-79
2023/06/30 07:47:54;;;;;;;50.83;31.27;;;18.60;99.90;;;;;;466404;253;28985;-79
2023/06/30 07:49:56;;;;;;;47.90;30.43;;;18.60;99.90;;;;;;470575;252;29283;-79
2023/06/30 07:51:57;;;;;;;59.57;34.50;;;18.60;99.90;;;;;;466436;253;29372;-79
2023/06/30 07:53:58;;;;;;;54.10;31.13;;;18.60;99.90;;;;;;470633;251;29300;-79
2023/06/30 07:55:59;;;;;;;53.37;31.40;;;18.60;99.90;;;;;;466397;253;28968;-78
2023/06/30 07:58:01;;;;;;;44.63;27.30;;;18.50;99.90;;;;;;470593;251;28772;-79
2023/06/30 08:00:02;;;;;;;49.33;29.30;;;18.40;99.90;;;;;;466430;253;29402;-79
2023/06/30 08:02:03;;;;;;;50.20;28.87;;;18.30;99.90;;;;;;470458;252;28746;-79
2023/06/30 08:04:04;;;;;;;47.83;27.10;;;18.20;99.90;;;;;;466416;253;28952;-78
2023/06/30 08:06:06;;;;;;;44.20;26.80;;;18.10;99.90;;;;;;470528;252;29209;-79
2023/06/30 08:08:08;;;;;;;40.43;25.80;;;18.10;99.90;;;;;;466363;253;29533;-79
2023/06/30 08:10:08;;;;;;;47.37;26.43;;;18.20;99.90;;;;;;470611;251;28816;-79
2023/06/30 08:12:09;;;;;;;44.67;22.70;;;18.20;99.90;;;;;;466354;253;28981;-79
2023/06/30 08:14:11;;;;;;;37.17;22.60;;;18.10;99.90;;;;;;470610;251;28788;-78
2023/06/30 08:16:12;;;;;;;39.00;22.60;;;18.20;99.90;;;;;;466164;255;28915;-79
2023/06/30 08:18:13;;;;;;;36.00;20.97;;;18.20;99.90;;;;;;470400;252;29369;-80
2023/06/30 08:20:14;;;;;;;34.37;20.40;;;18.30;99.90;;;;;;466409;253;28963;-80
2023/06/30 08:22:21;;;;;;;34.30;21.00;;;18.50;99.90;;;;;;470591;251;28853;-79
2023/06/30 08:24:20;;;;;;;34.40;21.93;;;18.60;99.90;;;;;;466320;255;28931;-79
2023/06/30 08:26:21;;;;;;;31.57;20.03;;;18.80;99.90;;;;;;470589;251;28840;-79
2023/06/30 08:28:22;;;;;;;32.13;20.03;;;19.10;99.90;;;;;;466362;253;29389;-79
2023/06/30 08:30:24;;;;;;;31.70;18.73;;;19.30;99.90;;;;;;470594;251;29215;-78
2023/06/30 08:32:25;;;;;;;29.20;18.60;;;19.20;99.90;;;;;;466392;253;29015;-78
2023/06/30 08:34:26;;;;;;;25.13;17.40;;;19.00;99.90;;;;;;470604;251;28776;-78
2023/06/30 08:36:27;;;;;;;27.20;18.43;;;18.80;99.90;;;;;;466362;253;29025;-79
2023/06/30 08:38:29;;;;;;;31.30;17.47;;;18.80;99.90;;;;;;470620;251;28792;-79
2023/06/30 08:40:31;;;;;;;29.20;17.90;;;18.60;99.90;;;;;;466088;255;28940;-79
2023/06/30 08:42:31;;;;;;;23.53;15.13;;;18.50;99.90;;;;;;470565;252;29373;-79
2023/06/30 08:44:32;;;;;;;22.33;15.53;;;18.50;99.90;;;;;;466397;253;28993;-79
2023/06/30 08:46:34;;;;;;;22.70;14.40;;;18.60;99.90;;;;;;470459;252;29368;-78
2023/06/30 08:48:35;;;;;;;22.50;13.77;;;18.70;99.90;;;;;;466380;253;29005;-79
2023/06/30 08:50:36;;;;;;;19.67;12.87;;;18.60;99.90;;;;;;470618;251;28763;-79
2023/06/30 08:52:37;;;;;;;17.83;12.53;;;18.40;99.90;;;;;;466377;253;29023;-79
2023/06/30 08:54:39;;;;;;;17.37;11.50;;;18.30;99.90;;;;;;470533;252;28775;-79
2023/06/30 08:56:40;;;;;;;18.90;12.90;;;18.50;99.90;;;;;;466366;253;28953;-79
2023/06/30 08:58:41;;;;;;;16.90;12.17;;;18.70;99.90;;;;;;470574;251;29223;-79
2023/06/30 09:00:42;;;;;;;18.13;12.27;;;18.90;99.90;;;;;;466339;255;29511;-79
2023/06/30 09:02:44;;;;;;;15.30;11.43;;;19.20;99.90;;;;;;470567;252;28877;-79
2023/06/30 09:04:45;;;;;;;14.17;10.93;;;19.20;99.90;;;;;;466386;253;28900;-78
2023/06/30 09:06:49;;;;;;;17.63;11.53;;;19.50;99.90;;;;;;470586;251;28762;-80
2023/06/30 09:08:50;;;;;;;16.83;12.27;;;19.70;99.90;;;;;;466351;253;29053;-79
2023/06/30 09:10:52;;;;;;;14.03;10.60;;;19.80;99.90;;;;;;470633;251;28813;-80
2023/06/30 09:13:02;;;;;;;21.03;13.30;;;20.00;99.90;;;;;;466368;253;29023;-79
2023/06/30 09:14:54;;;;;;;17.23;11.87;;;20.00;99.90;;;;;;469815;252;28811;-79
2023/06/30 09:16:55;;;;;;;19.27;13.63;;;19.80;99.90;;;;;;466382;253;28914;-79
2023/06/30 09:18:57;;;;;;;15.87;12.23;;;19.40;99.90;;;;;;470598;251;29349;-79
2023/06/30 09:20:58;;;;;;;17.93;13.27;;;19.10;99.90;;;;;;466409;253;29830;-79
2023/06/30 09:22:59;;;;;;;19.80;13.47;;;18.90;99.90;;;;;;470645;251;28758;-79
2023/06/30 09:25:01;;;;;;;17.83;13.30;;;18.80;99.90;;;;;;466385;253;29023;-80
2023/06/30 09:27:02;;;;;;;18.40;13.70;;;18.30;99.90;;;;;;470616;251;28739;-79
2023/06/30 09:29:03;;;;;;;17.77;13.63;;;17.90;99.90;;;;;;466285;255;29092;-80
2023/06/30 09:31:04;;;;;;;12.77;11.10;;;17.70;99.90;;;;;;470567;251;28845;-79
2023/06/30 09:33:06;;;;;;;14.80;11.40;;;17.80;99.90;;;;;;466352;255;29329;-79
2023/06/30 09:35:07;;;;;;;15.33;11.47;;;18.00;99.90;;;;;;470525;252;29395;-80
2023/06/30 09:37:09;;;;;;;15.13;11.80;;;18.10;99.90;;;;;;466355;253;28938;-79
2023/06/30 09:39:09;;;;;;;15.40;11.87;;;18.10;99.90;;;;;;470551;252;28861;-79
2023/06/30 09:41:11;;;;;;;13.07;10.80;;;18.30;99.90;;;;;;466171;255;29315;-79
2023/06/30 09:43:12;;;;;;;16.83;12.23;;;18.40;99.90;;;;;;470605;251;29200;-79
2023/06/30 09:45:13;;;;;;;15.47;12.70;;;18.60;99.90;;;;;;466374;253;29438;-78
2023/06/30 09:47:14;;;;;;;17.37;13.60;;;18.80;99.90;;;;;;470594;251;29333;-79
2023/06/30 09:49:16;;;;;;;12.83;11.00;;;18.50;99.90;;;;;;466355;253;28930;-79
2023/06/30 09:51:19;;;;;;;18.33;11.77;;;18.60;99.90;;;;;;470598;252;28880;-79
2023/06/30 09:53:18;;;;;;;13.23;11.00;;;18.90;99.90;;;;;;466266;255;28941;-79
2023/06/30 09:55:19;;;;;;;13.43;11.47;;;19.20;99.90;;;;;;470572;251;28798;-79
2023/06/30 09:57:21;;;;;;;15.10;11.00;;;19.50;99.90;;;;;;466366;253;28879;-79
2023/06/30 09:59:22;;;;;;;13.83;11.10;;;19.70;99.90;;;;;;470573;251;29248;-79
2023/06/30 10:01:23;;;;;;;14.63;12.03;;;19.80;99.90;;;;;;466379;251;29506;-79
2023/06/30 10:03:25;;;;;;;14.37;12.20;;;19.80;99.90;;;;;;470632;251;28736;-79
2023/06/30 10:05:26;;;;;;;13.97;10.37;;;19.50;99.90;;;;;;466300;255;28968;-79
2023/06/30 10:07:27;;;;;;;10.63;9.53;;;19.50;99.90;;;;;;470577;251;28814;-79
2023/06/30 10:09:28;;;;;;;12.20;10.03;;;19.80;99.90;;;;;;466337;253;29336;-79
2023/06/30 10:11:29;;;;;;;12.53;9.17;;;19.80;99.90;;;;;;470617;251;28866;-79
2023/06/30 10:13:31;;;;;;;11.20;9.57;;;19.90;99.90;;;;;;466358;253;29765;-79
2023/06/30 10:15:32;;;;;;;9.43;8.43;;;19.90;99.90;;;;;;470569;251;29275;-79
2023/06/30 10:17:33;;;;;;;11.93;8.60;;;19.80;99.90;;;;;;466354;253;29417;-79
2023/06/30 10:19:34;;;;;;;10.63;8.67;;;19.90;99.90;;;;;;470565;251;28768;-79
2023/06/30 10:21:36;;;;;;;8.40;7.50;;;19.70;99.90;;;;;;466369;253;28947;-79